sensor_id;sensor_type;location;lat;lon;timestamp;pressure;altitude;pressure_sealevel;temperature;humidity
36304;BME280;22335;49.800;8.596;2023-04-29T00:00:45;100114.63;;;18.96;59.10
36304;BME280;22335;49.800;8.596;2023-04-29T00:07:28;100153.97;;;19.14;59.07
36304;BME280;22335;49.800;8.596;2023-04-29T00:14:12;100092.72;;;18.79;59.06
36304;BME280;22335;49.800;8.596;2023-04-29T00:20:58;100139.06;;;19.19;58.62
36304;BME280;22335;49.800;8.596;2023-04-29T00:27:41;100134.69;;;19.18;58.28
36304;BME280;22335;49.800;8.596;2023-04-29T00:34:24;100146.66;;;19.22;58.09
36304;BME280;22335;49.800;8.596;2023-04-29T00:41:09;100080.91;;;18.70;58.29
36304;BME280;22335;49.800;8.596;2023-04-29T00:47:53;100157.78;;;19.09;58.18
36304;BME280;22335;49.800;8.596;2023-04-29T00:54:37;100164.41;;;19.05;58.11
36304;BME280;22335;49.800;8.596;2023-04-29T01:01:22;100140.84;;;18.99;58.19
36304;BME280;22335;49.800;8.596;2023-04-29T01:08:15;100145.44;;;18.95;58.27
36304;BME280;22335;49.800;8.596;2023-04-29T01:15:11;100153.16;;;19.01;58.23
36304;BME280;22335;49.800;8.596;2023-04-29T01:22:03;100157.09;;;19.00;58.41
36304;BME280;22335;49.800;8.596;2023-04-29T01:28:54;100138.22;;;18.78;58.41
36304;BME280;22335;49.800;8.596;2023-04-29T01:35:47;100095.03;;;18.52;58.61
36304;BME280;22335;49.800;8.596;2023-04-29T01:42:39;100122.94;;;18.59;58.52
36304;BME280;22335;49.800;8.596;2023-04-29T01:49:34;100166.59;;;18.87;58.60
36304;BME280;22335;49.800;8.596;2023-04-29T01:56:19;100155.41;;;18.96;58.37
36304;BME280;22335;49.800;8.596;2023-04-29T02:03:19;100166.81;;;18.94;58.32
36304;BME280;22335;49.800;8.596;2023-04-29T02:10:10;100166.00;;;18.94;58.31
36304;BME280;22335;49.800;8.596;2023-04-29T02:16:56;100177.56;;;18.96;58.24
36304;BME280;22335;49.800;8.596;2023-04-29T02:23:40;100182.06;;;18.88;58.22
36304;BME280;22335;49.800;8.596;2023-04-29T02:30:25;100183.13;;;18.83;58.11
36304;BME280;22335;49.800;8.596;2023-04-29T02:37:09;100197.28;;;18.70;57.89
36304;BME280;22335;49.800;8.596;2023-04-29T02:43:53;100200.41;;;18.68;57.62
36304;BME280;22335;49.800;8.596;2023-04-29T03:06:57;100206.84;;;18.48;57.51
36304;BME280;22335;49.800;8.596;2023-04-29T03:13:41;100203.47;;;18.42;57.67
36304;BME280;22335;49.800;8.596;2023-04-29T03:20:25;100197.59;;;18.43;57.46
36304;BME280;22335;49.800;8.596;2023-04-29T03:27:10;100225.50;;;18.38;57.59
36304;BME280;22335;49.800;8.596;2023-04-29T03:33:53;100218.13;;;18.30;57.84
36304;BME280;22335;49.800;8.596;2023-04-29T03:40:38;100187.84;;;18.13;57.82
36304;BME280;22335;49.800;8.596;2023-04-29T03:47:22;100223.66;;;18.30;57.82
36304;BME280;22335;49.800;8.596;2023-04-29T03:54:05;100215.56;;;18.25;58.02
36304;BME280;22335;49.800;8.596;2023-04-29T04:00:52;100224.47;;;18.31;57.77
36304;BME280;22335;49.800;8.596;2023-04-29T04:07:44;100236.22;;;18.28;58.14
36304;BME280;22335;49.800;8.596;2023-04-29T04:14:46;100247.97;;;18.25;58.24
36304;BME280;22335;49.800;8.596;2023-04-29T04:21:31;100248.53;;;18.18;58.42
36304;BME280;22335;49.800;8.596;2023-04-29T04:28:19;100259.75;;;18.22;58.41
36304;BME280;22335;49.800;8.596;2023-04-29T04:35:14;100263.63;;;18.20;58.36
36304;BME280;22335;49.800;8.596;2023-04-29T04:41:59;100266.56;;;18.24;58.52
36304;BME280;22335;49.800;8.596;2023-04-29T04:48:45;100249.31;;;18.06;58.09
36304;BME280;22335;49.800;8.596;2023-04-29T04:55:30;100256.63;;;18.23;58.31
36304;BME280;22335;49.800;8.596;2023-04-29T05:02:16;100280.91;;;18.38;58.20
36304;BME280;22335;49.800;8.596;2023-04-29T05:08:59;100294.13;;;18.33;58.20
36304;BME280;22335;49.800;8.596;2023-04-29T05:15:45;100270.53;;;18.14;58.38
36304;BME280;22335;49.800;8.596;2023-04-29T05:22:34;100307.06;;;18.29;58.45
36304;BME280;22335;49.800;8.596;2023-04-29T05:29:18;100332.78;;;18.29;58.57
36304;BME280;22335;49.800;8.596;2023-04-29T05:36:08;100186.91;;;17.34;58.70
36304;BME280;22335;49.800;8.596;2023-04-29T05:42:53;100343.53;;;18.31;59.02
36304;BME280;22335;49.800;8.596;2023-04-29T05:49:38;100357.63;;;18.38;58.93
36304;BME280;22335;49.800;8.596;2023-04-29T05:56:21;100368.94;;;18.45;59.05
36304;BME280;22335;49.800;8.596;2023-04-29T06:03:06;100367.16;;;18.49;59.34
36304;BME280;22335;49.800;8.596;2023-04-29T06:09:50;100361.81;;;18.44;58.79
36304;BME280;22335;49.800;8.596;2023-04-29T06:16:33;100392.06;;;18.49;58.89
36304;BME280;22335;49.800;8.596;2023-04-29T06:23:18;100375.03;;;18.38;59.06
36304;BME280;22335;49.800;8.596;2023-04-29T06:30:03;100393.00;;;18.53;58.89
36304;BME280;22335;49.800;8.596;2023-04-29T06:36:48;100424.09;;;18.38;58.44
36304;BME280;22335;49.800;8.596;2023-04-29T06:44:02;100418.34;;;18.22;59.05
36304;BME280;22335;49.800;8.596;2023-04-29T06:51:12;100432.28;;;18.05;59.47
36304;BME280;22335;49.800;8.596;2023-04-29T06:57:56;100433.59;;;18.07;58.68
36304;BME280;22335;49.800;8.596;2023-04-29T07:04:41;100432.44;;;18.08;57.44
36304;BME280;22335;49.800;8.596;2023-04-29T07:11:26;100372.53;;;17.53;56.95
36304;BME280;22335;49.800;8.596;2023-04-29T07:18:09;100446.44;;;17.82;56.72
36304;BME280;22335;49.800;8.596;2023-04-29T07:24:54;100463.53;;;17.75;56.56
36304;BME280;22335;49.800;8.596;2023-04-29T07:31:38;100481.16;;;17.62;56.44
36304;BME280;22335;49.800;8.596;2023-04-29T07:38:23;100458.75;;;17.46;56.00
36304;BME280;22335;49.800;8.596;2023-04-29T07:45:09;100501.66;;;17.61;55.37
36304;BME280;22335;49.800;8.596;2023-04-29T07:51:54;100510.16;;;17.56;55.27
36304;BME280;22335;49.800;8.596;2023-04-29T07:58:37;100511.38;;;17.76;55.04
36304;BME280;22335;49.800;8.596;2023-04-29T08:05:22;100469.44;;;17.65;54.63
36304;BME280;22335;49.800;8.596;2023-04-29T08:12:07;100508.50;;;18.02;54.24
36304;BME280;22335;49.800;8.596;2023-04-29T08:18:54;100528.22;;;18.01;53.88
36304;BME280;22335;49.800;8.596;2023-04-29T08:25:41;100519.44;;;17.98;53.36
36304;BME280;22335;49.800;8.596;2023-04-29T08:32:25;100484.09;;;17.57;53.05
36304;BME280;22335;49.800;8.596;2023-04-29T08:39:08;100542.22;;;17.95;52.93
36304;BME280;22335;49.800;8.596;2023-04-29T08:45:54;100483.31;;;17.57;52.36
36304;BME280;22335;49.800;8.596;2023-04-29T08:52:40;100545.00;;;17.95;52.57
36304;BME280;22335;49.800;8.596;2023-04-29T08:59:24;100560.00;;;17.94;52.66
36304;BME280;22335;49.800;8.596;2023-04-29T09:06:10;100556.78;;;17.75;52.66
36304;BME280;22335;49.800;8.596;2023-04-29T09:12:55;100563.13;;;17.84;52.60
36304;BME280;22335;49.800;8.596;2023-04-29T09:19:39;100563.94;;;17.85;53.28
36304;BME280;22335;49.800;8.596;2023-04-29T09:26:24;100568.59;;;17.93;53.10
36304;BME280;22335;49.800;8.596;2023-04-29T09:33:08;100575.78;;;17.94;52.90
36304;BME280;22335;49.800;8.596;2023-04-29T09:39:54;100591.25;;;17.86;53.29
36304;BME280;22335;49.800;8.596;2023-04-29T09:46:38;100591.91;;;17.83;53.16
36304;BME280;22335;49.800;8.596;2023-04-29T09:53:27;100593.06;;;17.82;52.85
36304;BME280;22335;49.800;8.596;2023-04-29T10:00:12;100604.47;;;17.81;52.89
36304;BME280;22335;49.800;8.596;2023-04-29T10:06:58;100605.91;;;17.87;52.94
36304;BME280;22335;49.800;8.596;2023-04-29T10:13:42;100611.63;;;17.82;53.23
36304;BME280;22335;49.800;8.596;2023-04-29T10:20:27;100613.25;;;17.83;53.12
36304;BME280;22335;49.800;8.596;2023-04-29T10:27:14;100612.91;;;17.75;53.18
36304;BME280;22335;49.800;8.596;2023-04-29T10:33:58;100614.59;;;17.59;53.68
36304;BME280;22335;49.800;8.596;2023-04-29T10:40:44;100623.34;;;17.79;53.73
36304;BME280;22335;49.800;8.596;2023-04-29T10:47:29;100617.81;;;17.87;53.65
36304;BME280;22335;49.800;8.596;2023-04-29T10:54:14;100620.72;;;17.91;53.81
36304;BME280;22335;49.800;8.596;2023-04-29T11:00:59;100632.44;;;17.96;53.99
36304;BME280;22335;49.800;8.596;2023-04-29T11:07:44;100587.03;;;17.80;53.84
36304;BME280;22335;49.800;8.596;2023-04-29T11:14:34;100612.88;;;17.93;53.79
36304;BME280;22335;49.800;8.596;2023-04-29T11:21:18;100621.97;;;18.02;53.83
36304;BME280;22335;49.800;8.596;2023-04-29T11:28:03;100622.75;;;18.11;53.53
36304;BME280;22335;49.800;8.596;2023-04-29T11:34:46;100621.44;;;18.17;53.63
36304;BME280;22335;49.800;8.596;2023-04-29T11:41:30;100626.47;;;18.24;53.43
36304;BME280;22335;49.800;8.596;2023-04-29T11:48:18;100621.75;;;18.25;53.26
36304;BME280;22335;49.800;8.596;2023-04-29T11:55:02;100627.56;;;18.32;52.91
36304;BME280;22335;49.800;8.596;2023-04-29T12:01:46;100635.22;;;18.35;52.99
36304;BME280;22335;49.800;8.596;2023-04-29T12:08:31;100608.84;;;18.29;53.04
36304;BME280;22335;49.800;8.596;2023-04-29T12:15:15;100625.84;;;18.48;52.85
36304;BME280;22335;49.800;8.596;2023-04-29T12:21:58;100626.56;;;18.66;52.33
36304;BME280;22335;49.800;8.596;2023-04-29T12:28:43;100623.66;;;18.92;51.58
36304;BME280;22335;49.800;8.596;2023-04-29T12:35:27;100620.16;;;18.83;51.01
36304;BME280;22335;49.800;8.596;2023-04-29T12:42:14;100621.03;;;19.17;51.26
36304;BME280;22335;49.800;8.596;2023-04-29T12:49:00;100617.56;;;19.41;50.53
36304;BME280;22335;49.800;8.596;2023-04-29T12:55:44;100627.63;;;19.66;49.90
36304;BME280;22335;49.800;8.596;2023-04-29T13:02:28;100624.19;;;19.81;49.91
36304;BME280;22335;49.800;8.596;2023-04-29T13:09:13;100614.88;;;19.98;49.11
36304;BME280;22335;49.800;8.596;2023-04-29T13:15:58;100615.00;;;20.02;49.45
36304;BME280;22335;49.800;8.596;2023-04-29T13:22:42;100610.16;;;20.11;48.98
36304;BME280;22335;49.800;8.596;2023-04-29T13:29:27;100617.31;;;20.12;48.72
36304;BME280;22335;49.800;8.596;2023-04-29T13:36:10;100600.78;;;20.28;48.69
36304;BME280;22335;49.800;8.596;2023-04-29T13:42:54;100584.09;;;20.28;47.76
36304;BME280;22335;49.800;8.596;2023-04-29T13:49:43;100613.88;;;20.40;47.67
36304;BME280;22335;49.800;8.596;2023-04-29T13:56:38;100628.31;;;20.21;47.89
36304;BME280;22335;49.800;8.596;2023-04-29T14:03:42;100633.16;;;20.12;47.90
36304;BME280;22335;49.800;8.596;2023-04-29T14:10:27;100563.09;;;19.69;47.75
36304;BME280;22335;49.800;8.596;2023-04-29T14:17:11;100613.13;;;19.94;47.60
36304;BME280;22335;49.800;8.596;2023-04-29T14:23:57;100638.03;;;20.15;47.92
36304;BME280;22335;49.800;8.596;2023-04-29T14:30:42;100640.81;;;20.15;47.42
36304;BME280;22335;49.800;8.596;2023-04-29T14:37:27;100663.59;;;20.08;47.61
36304;BME280;22335;49.800;8.596;2023-04-29T14:44:10;100666.69;;;20.07;47.56
36304;BME280;22335;49.800;8.596;2023-04-29T14:50:55;100660.94;;;20.12;47.48
36304;BME280;22335;49.800;8.596;2023-04-29T14:57:38;100648.50;;;19.85;47.46
36304;BME280;22335;49.800;8.596;2023-04-29T15:04:22;100675.16;;;19.98;47.64
36304;BME280;22335;49.800;8.596;2023-04-29T15:11:07;100672.09;;;19.91;47.79
36304;BME280;22335;49.800;8.596;2023-04-29T15:17:51;100650.41;;;19.72;47.81
36304;BME280;22335;49.800;8.596;2023-04-29T15:24:34;100676.31;;;20.09;47.48
36304;BME280;22335;49.800;8.596;2023-04-29T15:31:19;100679.91;;;20.10;47.40
36304;BME280;22335;49.800;8.596;2023-04-29T15:38:04;100692.19;;;20.21;47.23
36304;BME280;22335;49.800;8.596;2023-04-29T15:44:48;100697.44;;;20.22;47.21
36304;BME280;22335;49.800;8.596;2023-04-29T15:51:33;100689.91;;;20.23;46.93
36304;BME280;22335;49.800;8.596;2023-04-29T15:58:16;100677.34;;;19.92;47.07
36304;BME280;22335;49.800;8.596;2023-04-29T16:05:00;100707.50;;;19.94;46.92
36304;BME280;22335;49.800;8.596;2023-04-29T16:11:45;100694.75;;;19.80;46.42
36304;BME280;22335;49.800;8.596;2023-04-29T16:18:29;100715.34;;;19.79;46.80
36304;BME280;22335;49.800;8.596;2023-04-29T16:25:13;100714.66;;;19.83;46.51
36304;BME280;22335;49.800;8.596;2023-04-29T16:32:08;100716.91;;;19.68;46.76
36304;BME280;22335;49.800;8.596;2023-04-29T16:39:03;100542.03;;;18.60;46.71
36304;BME280;22335;49.800;8.596;2023-04-29T16:45:47;100713.47;;;19.63;47.05
36304;BME280;22335;49.800;8.596;2023-04-29T16:52:33;100715.75;;;19.48;47.30
36304;BME280;22335;49.800;8.596;2023-04-29T16:59:16;100730.81;;;19.18;47.85
36304;BME280;22335;49.800;8.596;2023-04-29T17:05:59;100739.22;;;19.00;47.75
36304;BME280;22335;49.800;8.596;2023-04-29T17:12:44;100727.53;;;18.86;47.85
36304;BME280;22335;49.800;8.596;2023-04-29T17:19:28;100753.69;;;18.76;47.87
36304;BME280;22335;49.800;8.596;2023-04-29T17:26:11;100761.34;;;18.71;48.16
36304;BME280;22335;49.800;8.596;2023-04-29T17:32:56;100750.91;;;18.76;48.14
36304;BME280;22335;49.800;8.596;2023-04-29T17:39:45;100766.91;;;18.71;47.94
36304;BME280;22335;49.800;8.596;2023-04-29T17:46:28;100718.94;;;18.32;47.86
36304;BME280;22335;49.800;8.596;2023-04-29T17:53:13;100736.84;;;18.43;47.84
36304;BME280;22335;49.800;8.596;2023-04-29T17:59:57;100777.66;;;18.63;47.84
36304;BME280;22335;49.800;8.596;2023-04-29T18:06:40;100787.75;;;18.68;47.85
36304;BME280;22335;49.800;8.596;2023-04-29T18:13:25;100795.25;;;18.67;47.85
36304;BME280;22335;49.800;8.596;2023-04-29T18:20:09;100799.00;;;18.72;47.93
36304;BME280;22335;49.800;8.596;2023-04-29T18:26:54;100758.00;;;18.39;47.90
36304;BME280;22335;49.800;8.596;2023-04-29T18:33:39;100797.84;;;18.64;48.23
36304;BME280;22335;49.800;8.596;2023-04-29T18:40:23;100778.38;;;18.43;48.24
36304;BME280;22335;49.800;8.596;2023-04-29T18:47:06;100810.25;;;18.58;48.29
36304;BME280;22335;49.800;8.596;2023-04-29T18:53:51;100810.47;;;18.44;48.24
36304;BME280;22335;49.800;8.596;2023-04-29T19:00:34;100827.09;;;18.44;48.24
36304;BME280;22335;49.800;8.596;2023-04-29T19:07:18;100831.66;;;18.40;48.20
36304;BME280;22335;49.800;8.596;2023-04-29T19:14:03;100830.50;;;18.41;48.10
36304;BME280;22335;49.800;8.596;2023-04-29T19:20:46;100839.47;;;18.38;47.93
36304;BME280;22335;49.800;8.596;2023-04-29T19:27:31;100855.13;;;18.25;48.10
36304;BME280;22335;49.800;8.596;2023-04-29T19:34:16;100861.00;;;18.06;48.25
36304;BME280;22335;49.800;8.596;2023-04-29T19:40:59;100867.47;;;17.93;48.39
36304;BME280;22335;49.800;8.596;2023-04-29T19:47:42;100864.53;;;17.81;48.42
36304;BME280;22335;49.800;8.596;2023-04-29T19:54:30;100862.72;;;17.76;48.56
36304;BME280;22335;49.800;8.596;2023-04-29T20:01:15;100872.19;;;17.75;48.44
36304;BME280;22335;49.800;8.596;2023-04-29T20:07:58;100886.66;;;17.72;48.57
36304;BME280;22335;49.800;8.596;2023-04-29T20:14:43;100840.56;;;17.59;48.67
36304;BME280;22335;49.800;8.596;2023-04-29T20:21:27;100880.47;;;17.75;48.67
36304;BME280;22335;49.800;8.596;2023-04-29T20:28:11;100891.09;;;17.82;48.69
36304;BME280;22335;49.800;8.596;2023-04-29T20:34:56;100887.50;;;17.90;48.60
36304;BME280;22335;49.800;8.596;2023-04-29T20:41:39;100895.81;;;17.98;48.56
36304;BME280;22335;49.800;8.596;2023-04-29T20:48:23;100889.81;;;17.96;48.58
36304;BME280;22335;49.800;8.596;2023-04-29T20:55:08;100884.25;;;17.79;48.83
36304;BME280;22335;49.800;8.596;2023-04-29T21:01:52;100898.69;;;17.76;48.84
36304;BME280;22335;49.800;8.596;2023-04-29T21:08:36;100899.69;;;17.80;48.91
36304;BME280;22335;49.800;8.596;2023-04-29T21:15:20;100895.19;;;17.84;48.82
36304;BME280;22335;49.800;8.596;2023-04-29T21:22:04;100903.28;;;17.81;48.88
36304;BME280;22335;49.800;8.596;2023-04-29T21:28:48;100907.19;;;17.80;48.74
36304;BME280;22335;49.800;8.596;2023-04-29T21:35:33;100895.13;;;17.75;48.77
36304;BME280;22335;49.800;8.596;2023-04-29T21:42:20;100897.09;;;17.84;48.68
36304;BME280;22335;49.800;8.596;2023-04-29T21:49:06;100794.44;;;17.19;48.60
36304;BME280;22335;49.800;8.596;2023-04-29T21:55:51;100896.47;;;17.95;48.59
36304;BME280;22335;49.800;8.596;2023-04-29T22:02:35;100913.06;;;17.95;48.55
36304;BME280;22335;49.800;8.596;2023-04-29T22:09:23;100907.06;;;18.02;48.41
36304;BME280;22335;49.800;8.596;2023-04-29T22:16:07;100910.19;;;18.09;48.41
36304;BME280;22335;49.800;8.596;2023-04-29T22:22:51;100924.66;;;18.24;48.34
36304;BME280;22335;49.800;8.596;2023-04-29T22:29:35;100925.00;;;18.13;48.40
36304;BME280;22335;49.800;8.596;2023-04-29T22:36:19;100919.44;;;18.05;48.35
36304;BME280;22335;49.800;8.596;2023-04-29T22:43:03;100929.53;;;18.01;48.22
36304;BME280;22335;49.800;8.596;2023-04-29T22:49:46;100942.84;;;17.81;48.53
36304;BME280;22335;49.800;8.596;2023-04-29T22:56:31;100935.94;;;17.70;48.37
36304;BME280;22335;49.800;8.596;2023-04-29T23:03:15;100936.25;;;17.60;48.59
36304;BME280;22335;49.800;8.596;2023-04-29T23:09:58;100897.59;;;17.28;48.53
36304;BME280;22335;49.800;8.596;2023-04-29T23:16:43;100930.56;;;17.65;48.58
36304;BME280;22335;49.800;8.596;2023-04-29T23:23:26;100947.19;;;17.73;48.58
36304;BME280;22335;49.800;8.596;2023-04-29T23:30:10;100945.56;;;17.72;48.54
36304;BME280;22335;49.800;8.596;2023-04-29T23:36:55;100948.22;;;17.78;48.41
36304;BME280;22335;49.800;8.596;2023-04-29T23:43:41;100950.81;;;17.83;48.44
36304;BME280;22335;49.800;8.596;2023-04-29T23:50:25;100955.03;;;17.80;48.58
36304;BME280;22335;49.800;8.596;2023-04-29T23:57:10;100935.38;;;17.82;48.46
